Broome International Airport
YBRM : now visible

Airfield :











YOU CAN JOIN US ON...

 
LOGIN :

Register | Disclaimer

   EN    FR    IT 

 









Legend :    VFR   Marginal VFR   IFR   Intensive IFR   Very Intensive IFR
Visi :
Ceiling :
>= 8 km
>= 3000ft
5 to 8 km
1000 to 3000 ft
1500m to 5 km
500 to 1000 ft
800 to 1500m
200 to 500 ft
< 800m
< 200 ft
Symbols :   Thunderstorms  Fog  Heavy snow  Heavy precipitations  Wind > 20 kt






- Airport Elevation : 56 ft
- IATA code : BME


YBRM - Broome International

CURRENT METAR :
  • 220530Z 35013G24KT 9000 -SHRA FEW015 SCT021 BKN080 27/26 Q1000

EXPIRED METARs :
  • 220525Z 36011KT 6000 SHRA FEW015 SCT022 OVC160 28/26 Q1000
  • 220510Z AUTO 36009KT 9999 -SHRA SCT018 BKN026 BKN032 28/26 Q1000 RESHRA
  • 220500Z 35011KT 9999 VCSH FEW014 SCT020 OVC160 27/26 Q1001
  • 220453Z 35010KT 6000 SHRA FEW015 BKN019 OVC165 27/26 Q1001
  • 220430Z 36012KT 8000 -SHRA FEW015 SCT025 BKN084 27/25 Q1001
  • 220425Z 36013KT 4000 SHRA FEW015 SCT021 OVC165 29/25 Q1001
  • 220400Z 01014KT 9999 VCSH FEW015 BKN056 OVC165 29/25 Q1001
  • 220330Z 35012KT 9999 VCSH FEW015 SCT021 BKN065 30/25 Q1002
  • 220300Z 35015KT 9999 FEW015 BKN051 OVC165 30/25 Q1002 RF00.0/000.0
  • 220250Z 35015G25KT 9999 SCT015 BKN040 OVC150 30/25 Q1002

TAF AMD TAF YBRM
Valid from the 22 at 04:00 until the 23 at 00:00 UTC


220435Z 2204/2300 36014KT 9999 -SHRA SCT012 BKN020
FM221800 33014KT 9999 -SHRA SCT012 BKN020
TEMPO 2204/2300 VRB30G45KT 1000 TSRA BKN010 SCT025CB
YBBB FIR / Oceania



MET'MAP, your aeronautical weather chart ! - Copyright ORBIFLY December 2007 - Disclaimer

ORBIFLY MET'MAP TEAM :

Programming & Development : Alexandra Zaïnal
Concept & original design : Baudouin d'Aumeries
Assistance for programming : Marc-Olivier Méhu
Technical & hardware support : Manuel Goepfert

Contact : metmap@orbifly.com




SOURCES & CREDITS :

   NOAA       Earth
Advisory